Terminal Aerodrome Forecast
Issued by NWS

Home | Current Version | Previous Version | Text Only | Print | Product List | Glossary On
Versions: 1 2 3 4 5 6 7 8 9 10 11 12 13 14 15 16 17 18 19 20 21 22 23 24 25
960
FTUS41 KAKQ 042151 AAB
TAFPHF
TAF AMD
KPHF 042151Z 0422/0518 06010KT P6SM OVC008
      TEMPO 0422/0501 SCT008 OVC015
     FM050100 05005KT P6SM OVC008
     FM050600 04003KT 4SM BR OVC003
     FM051600 05009KT P6SM OVC008=

USA.gov is the U.S. government's official web portal to all federal, state and local government web resources and services.